sensor_id;sensor_type;location;lat;lon;timestamp;temperature;humidity
9373;DHT22;10838;52.350;9.790;2024-02-04T00:00:30;10.00;97.60
9373;DHT22;10838;52.350;9.790;2024-02-04T00:02:56;10.00;97.60
9373;DHT22;10838;52.350;9.790;2024-02-04T00:05:23;9.90;97.70
9373;DHT22;10838;52.350;9.790;2024-02-04T00:07:51;9.90;97.70
9373;DHT22;10838;52.350;9.790;2024-02-04T00:10:17;9.90;97.70
9373;DHT22;10838;52.350;9.790;2024-02-04T00:12:44;9.90;97.70
9373;DHT22;10838;52.350;9.790;2024-02-04T00:15:10;9.80;97.70
9373;DHT22;10838;52.350;9.790;2024-02-04T00:17:37;9.80;97.70
9373;DHT22;10838;52.350;9.790;2024-02-04T00:20:04;9.80;97.70
9373;DHT22;10838;52.350;9.790;2024-02-04T00:22:32;9.80;97.70
9373;DHT22;10838;52.350;9.790;2024-02-04T00:25:00;9.80;97.70
9373;DHT22;10838;52.350;9.790;2024-02-04T00:27:30;9.80;97.80
9373;DHT22;10838;52.350;9.790;2024-02-04T00:29:56;9.80;97.80
9373;DHT22;10838;52.350;9.790;2024-02-04T00:32:23;9.70;97.80
9373;DHT22;10838;52.350;9.790;2024-02-04T00:34:50;9.70;97.80
9373;DHT22;10838;52.350;9.790;2024-02-04T00:37:16;9.70;97.80
9373;DHT22;10838;52.350;9.790;2024-02-04T00:39:43;9.70;97.80
9373;DHT22;10838;52.350;9.790;2024-02-04T00:42:10;9.60;97.80
9373;DHT22;10838;52.350;9.790;2024-02-04T00:44:37;9.60;97.80
9373;DHT22;10838;52.350;9.790;2024-02-04T00:47:04;9.60;97.80
9373;DHT22;10838;52.350;9.790;2024-02-04T00:49:30;9.60;97.80
9373;DHT22;10838;52.350;9.790;2024-02-04T00:51:57;9.60;97.80
9373;DHT22;10838;52.350;9.790;2024-02-04T00:54:23;9.50;97.80
9373;DHT22;10838;52.350;9.790;2024-02-04T00:56:50;9.50;97.80
9373;DHT22;10838;52.350;9.790;2024-02-04T00:59:18;9.50;97.80
9373;DHT22;10838;52.350;9.790;2024-02-04T01:01:44;9.50;97.80
9373;DHT22;10838;52.350;9.790;2024-02-04T01:04:11;9.50;97.80
9373;DHT22;10838;52.350;9.790;2024-02-04T01:06:38;9.40;97.80
9373;DHT22;10838;52.350;9.790;2024-02-04T01:09:04;9.40;97.80
9373;DHT22;10838;52.350;9.790;2024-02-04T01:11:32;9.40;97.80
9373;DHT22;10838;52.350;9.790;2024-02-04T01:13:58;9.40;97.80
9373;DHT22;10838;52.350;9.790;2024-02-04T01:16:26;9.40;97.80
9373;DHT22;10838;52.350;9.790;2024-02-04T01:18:52;9.40;97.90
9373;DHT22;10838;52.350;9.790;2024-02-04T01:21:18;9.40;97.90
9373;DHT22;10838;52.350;9.790;2024-02-04T01:23:45;9.30;97.80
9373;DHT22;10838;52.350;9.790;2024-02-04T01:26:11;9.30;97.80
9373;DHT22;10838;52.350;9.790;2024-02-04T01:28:38;9.30;97.80
9373;DHT22;10838;52.350;9.790;2024-02-04T01:31:05;9.30;97.80
9373;DHT22;10838;52.350;9.790;2024-02-04T01:33:32;9.30;97.80
9373;DHT22;10838;52.350;9.790;2024-02-04T01:35:59;9.30;97.80
9373;DHT22;10838;52.350;9.790;2024-02-04T01:38:25;9.30;97.80
9373;DHT22;10838;52.350;9.790;2024-02-04T01:40:52;9.20;97.80
9373;DHT22;10838;52.350;9.790;2024-02-04T01:43:19;9.20;97.80
9373;DHT22;10838;52.350;9.790;2024-02-04T01:45:46;9.30;97.80
9373;DHT22;10838;52.350;9.790;2024-02-04T01:48:13;9.20;97.80
9373;DHT22;10838;52.350;9.790;2024-02-04T01:50:42;9.30;97.90
9373;DHT22;10838;52.350;9.790;2024-02-04T01:53:10;9.30;97.90
9373;DHT22;10838;52.350;9.790;2024-02-04T01:55:38;9.30;97.90
9373;DHT22;10838;52.350;9.790;2024-02-04T01:58:06;9.30;97.90
9373;DHT22;10838;52.350;9.790;2024-02-04T02:00:33;9.30;97.90
9373;DHT22;10838;52.350;9.790;2024-02-04T02:03:00;9.30;97.90
9373;DHT22;10838;52.350;9.790;2024-02-04T02:05:28;9.30;98.00
9373;DHT22;10838;52.350;9.790;2024-02-04T02:07:56;9.30;98.00
9373;DHT22;10838;52.350;9.790;2024-02-04T02:10:22;9.30;98.00
9373;DHT22;10838;52.350;9.790;2024-02-04T02:12:54;9.40;98.00
9373;DHT22;10838;52.350;9.790;2024-02-04T02:15:27;9.40;98.00
9373;DHT22;10838;52.350;9.790;2024-02-04T02:17:58;9.40;98.00
9373;DHT22;10838;52.350;9.790;2024-02-04T02:20:30;9.40;98.00
9373;DHT22;10838;52.350;9.790;2024-02-04T02:23:07;9.40;98.00
9373;DHT22;10838;52.350;9.790;2024-02-04T02:25:36;9.40;98.00
9373;DHT22;10838;52.350;9.790;2024-02-04T02:28:03;9.50;98.00
9373;DHT22;10838;52.350;9.790;2024-02-04T02:30:30;9.50;98.00
9373;DHT22;10838;52.350;9.790;2024-02-04T02:32:57;9.50;98.00
9373;DHT22;10838;52.350;9.790;2024-02-04T02:35:24;9.50;98.00
9373;DHT22;10838;52.350;9.790;2024-02-04T02:37:56;9.50;98.00
9373;DHT22;10838;52.350;9.790;2024-02-04T02:40:29;9.50;98.00
9373;DHT22;10838;52.350;9.790;2024-02-04T02:43:01;9.50;98.00
9373;DHT22;10838;52.350;9.790;2024-02-04T02:45:28;9.50;98.00
9373;DHT22;10838;52.350;9.790;2024-02-04T02:47:55;9.50;98.00
9373;DHT22;10838;52.350;9.790;2024-02-04T02:50:22;9.50;98.00
9373;DHT22;10838;52.350;9.790;2024-02-04T02:52:48;9.50;98.00
9373;DHT22;10838;52.350;9.790;2024-02-04T02:55:15;9.50;98.00
9373;DHT22;10838;52.350;9.790;2024-02-04T02:57:42;9.50;98.00
9373;DHT22;10838;52.350;9.790;2024-02-04T03:00:11;9.50;98.00
9373;DHT22;10838;52.350;9.790;2024-02-04T03:02:38;9.50;98.00
9373;DHT22;10838;52.350;9.790;2024-02-04T03:08:27;9.50;98.00
9373;DHT22;10838;52.350;9.790;2024-02-04T03:10:53;9.50;98.00
9373;DHT22;10838;52.350;9.790;2024-02-04T03:13:20;9.50;98.00
9373;DHT22;10838;52.350;9.790;2024-02-04T03:15:47;9.50;98.00
9373;DHT22;10838;52.350;9.790;2024-02-04T03:18:14;9.50;98.00
9373;DHT22;10838;52.350;9.790;2024-02-04T03:20:41;9.50;98.00
9373;DHT22;10838;52.350;9.790;2024-02-04T03:23:07;9.50;98.00
9373;DHT22;10838;52.350;9.790;2024-02-04T03:25:34;9.50;98.00
9373;DHT22;10838;52.350;9.790;2024-02-04T03:28:00;9.50;98.00
9373;DHT22;10838;52.350;9.790;2024-02-04T03:30:27;9.50;98.00
9373;DHT22;10838;52.350;9.790;2024-02-04T03:32:55;9.40;98.00
9373;DHT22;10838;52.350;9.790;2024-02-04T03:35:21;9.50;98.00
9373;DHT22;10838;52.350;9.790;2024-02-04T03:37:48;9.50;98.00
9373;DHT22;10838;52.350;9.790;2024-02-04T03:40:14;9.40;98.00
9373;DHT22;10838;52.350;9.790;2024-02-04T03:42:41;9.40;98.00
9373;DHT22;10838;52.350;9.790;2024-02-04T03:45:08;9.40;98.10
9373;DHT22;10838;52.350;9.790;2024-02-04T03:47:35;9.40;98.10
9373;DHT22;10838;52.350;9.790;2024-02-04T03:50:03;9.40;98.10
9373;DHT22;10838;52.350;9.790;2024-02-04T03:52:30;9.40;98.10
9373;DHT22;10838;52.350;9.790;2024-02-04T03:54:56;9.40;98.10
9373;DHT22;10838;52.350;9.790;2024-02-04T03:57:24;9.40;98.10
9373;DHT22;10838;52.350;9.790;2024-02-04T03:59:51;9.40;98.10
9373;DHT22;10838;52.350;9.790;2024-02-04T04:02:17;9.40;98.10
9373;DHT22;10838;52.350;9.790;2024-02-04T04:04:44;9.50;98.10
9373;DHT22;10838;52.350;9.790;2024-02-04T04:07:14;9.50;98.10
9373;DHT22;10838;52.350;9.790;2024-02-04T04:09:40;9.40;98.10
9373;DHT22;10838;52.350;9.790;2024-02-04T04:12:07;9.40;98.10
9373;DHT22;10838;52.350;9.790;2024-02-04T04:14:33;9.40;98.10
9373;DHT22;10838;52.350;9.790;2024-02-04T04:17:00;9.40;98.10
9373;DHT22;10838;52.350;9.790;2024-02-04T04:19:26;9.40;98.10
9373;DHT22;10838;52.350;9.790;2024-02-04T04:21:53;9.40;98.10
9373;DHT22;10838;52.350;9.790;2024-02-04T04:24:21;9.40;98.10
9373;DHT22;10838;52.350;9.790;2024-02-04T04:26:48;9.30;98.10
9373;DHT22;10838;52.350;9.790;2024-02-04T04:29:14;9.40;98.10
9373;DHT22;10838;52.350;9.790;2024-02-04T04:31:41;9.30;98.10
9373;DHT22;10838;52.350;9.790;2024-02-04T04:34:07;9.30;98.10
9373;DHT22;10838;52.350;9.790;2024-02-04T04:36:34;9.30;98.10
9373;DHT22;10838;52.350;9.790;2024-02-04T04:39:01;9.30;98.10
9373;DHT22;10838;52.350;9.790;2024-02-04T04:41:29;9.20;98.10
9373;DHT22;10838;52.350;9.790;2024-02-04T04:43:55;9.20;98.10
9373;DHT22;10838;52.350;9.790;2024-02-04T04:46:22;9.20;98.10
9373;DHT22;10838;52.350;9.790;2024-02-04T04:48:49;9.20;98.10
9373;DHT22;10838;52.350;9.790;2024-02-04T04:51:15;9.30;98.10
9373;DHT22;10838;52.350;9.790;2024-02-04T04:53:42;9.20;98.10
9373;DHT22;10838;52.350;9.790;2024-02-04T04:56:08;9.20;98.10
9373;DHT22;10838;52.350;9.790;2024-02-04T04:58:36;9.20;98.10
9373;DHT22;10838;52.350;9.790;2024-02-04T05:01:04;9.20;98.10
9373;DHT22;10838;52.350;9.790;2024-02-04T05:03:31;9.20;98.10
9373;DHT22;10838;52.350;9.790;2024-02-04T05:05:57;9.20;98.10
9373;DHT22;10838;52.350;9.790;2024-02-04T05:08:26;9.20;98.10
9373;DHT22;10838;52.350;9.790;2024-02-04T05:10:53;9.20;98.10
9373;DHT22;10838;52.350;9.790;2024-02-04T05:13:19;9.20;98.10
9373;DHT22;10838;52.350;9.790;2024-02-04T05:15:47;9.20;98.10
9373;DHT22;10838;52.350;9.790;2024-02-04T05:18:13;9.20;98.10
9373;DHT22;10838;52.350;9.790;2024-02-04T05:20:40;9.20;98.10
9373;DHT22;10838;52.350;9.790;2024-02-04T05:23:08;9.20;98.10
9373;DHT22;10838;52.350;9.790;2024-02-04T05:25:35;9.20;98.10
9373;DHT22;10838;52.350;9.790;2024-02-04T05:28:01;9.20;98.10
9373;DHT22;10838;52.350;9.790;2024-02-04T05:30:28;9.20;98.10
9373;DHT22;10838;52.350;9.790;2024-02-04T05:32:56;9.20;98.10
9373;DHT22;10838;52.350;9.790;2024-02-04T05:35:22;9.20;98.10
9373;DHT22;10838;52.350;9.790;2024-02-04T05:37:49;9.20;98.10
9373;DHT22;10838;52.350;9.790;2024-02-04T05:40:15;9.20;98.10
9373;DHT22;10838;52.350;9.790;2024-02-04T05:42:44;9.20;98.10
9373;DHT22;10838;52.350;9.790;2024-02-04T05:45:10;9.20;98.00
9373;DHT22;10838;52.350;9.790;2024-02-04T05:47:37;9.20;98.00
9373;DHT22;10838;52.350;9.790;2024-02-04T05:50:06;9.20;98.00
9373;DHT22;10838;52.350;9.790;2024-02-04T05:52:33;9.20;98.00
9373;DHT22;10838;52.350;9.790;2024-02-04T05:54:59;9.20;97.90
9373;DHT22;10838;52.350;9.790;2024-02-04T05:57:26;9.20;97.90
9373;DHT22;10838;52.350;9.790;2024-02-04T05:59:52;9.20;97.90
9373;DHT22;10838;52.350;9.790;2024-02-04T06:02:20;9.20;97.90
9373;DHT22;10838;52.350;9.790;2024-02-04T06:04:48;9.20;97.90
9373;DHT22;10838;52.350;9.790;2024-02-04T06:07:16;9.20;97.80
9373;DHT22;10838;52.350;9.790;2024-02-04T06:09:42;9.20;97.80
9373;DHT22;10838;52.350;9.790;2024-02-04T06:12:09;9.20;97.80
9373;DHT22;10838;52.350;9.790;2024-02-04T06:14:35;9.20;97.80
9373;DHT22;10838;52.350;9.790;2024-02-04T06:17:05;9.20;97.80
9373;DHT22;10838;52.350;9.790;2024-02-04T06:19:33;9.20;97.80
9373;DHT22;10838;52.350;9.790;2024-02-04T06:22:00;9.20;97.80
9373;DHT22;10838;52.350;9.790;2024-02-04T06:24:28;9.20;97.70
9373;DHT22;10838;52.350;9.790;2024-02-04T06:26:55;9.20;97.70
9373;DHT22;10838;52.350;9.790;2024-02-04T06:29:21;9.20;97.70
9373;DHT22;10838;52.350;9.790;2024-02-04T06:31:48;9.20;97.70
9373;DHT22;10838;52.350;9.790;2024-02-04T06:34:14;9.20;97.60
9373;DHT22;10838;52.350;9.790;2024-02-04T06:36:42;9.10;97.60
9373;DHT22;10838;52.350;9.790;2024-02-04T06:39:09;9.10;97.60
9373;DHT22;10838;52.350;9.790;2024-02-04T06:41:37;9.10;97.60
9373;DHT22;10838;52.350;9.790;2024-02-04T06:44:04;9.10;97.50
9373;DHT22;10838;52.350;9.790;2024-02-04T06:46:30;9.10;97.50
9373;DHT22;10838;52.350;9.790;2024-02-04T06:48:57;9.10;97.50
9373;DHT22;10838;52.350;9.790;2024-02-04T06:51:23;9.10;97.40
9373;DHT22;10838;52.350;9.790;2024-02-04T06:53:50;9.10;97.40
9373;DHT22;10838;52.350;9.790;2024-02-04T06:56:17;9.10;97.40
9373;DHT22;10838;52.350;9.790;2024-02-04T06:58:44;9.10;97.30
9373;DHT22;10838;52.350;9.790;2024-02-04T07:01:11;9.10;97.30
9373;DHT22;10838;52.350;9.790;2024-02-04T07:03:38;9.10;97.30
9373;DHT22;10838;52.350;9.790;2024-02-04T07:06:05;9.10;97.30
9373;DHT22;10838;52.350;9.790;2024-02-04T07:08:32;9.10;97.30
9373;DHT22;10838;52.350;9.790;2024-02-04T07:10:59;9.10;97.20
9373;DHT22;10838;52.350;9.790;2024-02-04T07:13:25;9.10;97.20
9373;DHT22;10838;52.350;9.790;2024-02-04T07:15:53;9.10;97.20
9373;DHT22;10838;52.350;9.790;2024-02-04T07:18:20;9.10;97.20
9373;DHT22;10838;52.350;9.790;2024-02-04T07:20:47;9.10;97.30
9373;DHT22;10838;52.350;9.790;2024-02-04T07:23:14;9.10;97.30
9373;DHT22;10838;52.350;9.790;2024-02-04T07:25:41;9.10;97.30
9373;DHT22;10838;52.350;9.790;2024-02-04T07:28:08;9.10;97.30
9373;DHT22;10838;52.350;9.790;2024-02-04T07:30:34;9.10;97.30
9373;DHT22;10838;52.350;9.790;2024-02-04T07:33:02;9.10;97.30
9373;DHT22;10838;52.350;9.790;2024-02-04T07:35:29;9.10;97.30
9373;DHT22;10838;52.350;9.790;2024-02-04T07:37:56;9.10;97.40
9373;DHT22;10838;52.350;9.790;2024-02-04T07:40:22;9.10;97.40
9373;DHT22;10838;52.350;9.790;2024-02-04T07:42:49;9.10;97.40
9373;DHT22;10838;52.350;9.790;2024-02-04T07:45:15;9.10;97.40
9373;DHT22;10838;52.350;9.790;2024-02-04T07:47:42;9.10;97.40
9373;DHT22;10838;52.350;9.790;2024-02-04T07:50:10;9.10;97.40
9373;DHT22;10838;52.350;9.790;2024-02-04T07:52:36;9.10;97.30
9373;DHT22;10838;52.350;9.790;2024-02-04T07:55:03;9.20;97.30
9373;DHT22;10838;52.350;9.790;2024-02-04T07:57:30;9.20;97.30
9373;DHT22;10838;52.350;9.790;2024-02-04T07:59:57;9.20;97.30
9373;DHT22;10838;52.350;9.790;2024-02-04T08:02:24;9.30;97.40
9373;DHT22;10838;52.350;9.790;2024-02-04T08:04:50;9.30;97.40
9373;DHT22;10838;52.350;9.790;2024-02-04T08:07:18;9.30;97.40
9373;DHT22;10838;52.350;9.790;2024-02-04T08:09:46;9.30;97.40
9373;DHT22;10838;52.350;9.790;2024-02-04T08:12:12;9.30;97.40
9373;DHT22;10838;52.350;9.790;2024-02-04T08:14:39;9.40;97.30
9373;DHT22;10838;52.350;9.790;2024-02-04T08:17:05;9.40;97.30
9373;DHT22;10838;52.350;9.790;2024-02-04T08:19:32;9.40;97.30
9373;DHT22;10838;52.350;9.790;2024-02-04T08:21:58;9.40;97.30
9373;DHT22;10838;52.350;9.790;2024-02-04T08:24:27;9.40;97.30
9373;DHT22;10838;52.350;9.790;2024-02-04T08:26:55;9.50;97.30
9373;DHT22;10838;52.350;9.790;2024-02-04T08:29:21;9.40;97.20
9373;DHT22;10838;52.350;9.790;2024-02-04T08:31:48;9.50;97.20
9373;DHT22;10838;52.350;9.790;2024-02-04T08:34:14;9.50;97.20
9373;DHT22;10838;52.350;9.790;2024-02-04T08:36:41;9.50;97.20
9373;DHT22;10838;52.350;9.790;2024-02-04T08:39:08;9.50;97.20
9373;DHT22;10838;52.350;9.790;2024-02-04T08:41:36;9.60;97.10
9373;DHT22;10838;52.350;9.790;2024-02-04T08:44:02;9.60;97.10
9373;DHT22;10838;52.350;9.790;2024-02-04T08:46:29;9.50;97.00
9373;DHT22;10838;52.350;9.790;2024-02-04T08:48:55;9.50;97.00
9373;DHT22;10838;52.350;9.790;2024-02-04T08:51:22;9.60;97.00
9373;DHT22;10838;52.350;9.790;2024-02-04T08:53:48;9.60;96.90
9373;DHT22;10838;52.350;9.790;2024-02-04T08:56:15;9.60;96.90
9373;DHT22;10838;52.350;9.790;2024-02-04T08:58:44;9.60;96.80
9373;DHT22;10838;52.350;9.790;2024-02-04T09:01:11;9.60;96.80
9373;DHT22;10838;52.350;9.790;2024-02-04T09:03:37;9.50;96.80
9373;DHT22;10838;52.350;9.790;2024-02-04T09:06:05;9.70;96.80
9373;DHT22;10838;52.350;9.790;2024-02-04T09:08:32;9.60;96.80
9373;DHT22;10838;52.350;9.790;2024-02-04T09:10:58;9.60;96.70
9373;DHT22;10838;52.350;9.790;2024-02-04T09:13:25;9.60;96.70
9373;DHT22;10838;52.350;9.790;2024-02-04T09:15:53;9.60;96.70
9373;DHT22;10838;52.350;9.790;2024-02-04T09:18:20;9.60;96.70
9373;DHT22;10838;52.350;9.790;2024-02-04T09:20:47;9.60;96.70
9373;DHT22;10838;52.350;9.790;2024-02-04T09:23:14;9.60;96.70
9373;DHT22;10838;52.350;9.790;2024-02-04T09:25:40;9.60;96.70
9373;DHT22;10838;52.350;9.790;2024-02-04T09:28:07;9.60;96.70
9373;DHT22;10838;52.350;9.790;2024-02-04T09:30:34;9.60;96.70
9373;DHT22;10838;52.350;9.790;2024-02-04T09:33:02;9.60;96.70
9373;DHT22;10838;52.350;9.790;2024-02-04T09:35:28;9.60;96.70
9373;DHT22;10838;52.350;9.790;2024-02-04T09:37:55;9.70;96.70
9373;DHT22;10838;52.350;9.790;2024-02-04T09:40:22;9.70;96.70
9373;DHT22;10838;52.350;9.790;2024-02-04T09:42:48;9.70;96.70
9373;DHT22;10838;52.350;9.790;2024-02-04T09:45:17;9.70;96.70
9373;DHT22;10838;52.350;9.790;2024-02-04T09:47:45;9.70;96.60
9373;DHT22;10838;52.350;9.790;2024-02-04T09:50:13;9.70;96.60
9373;DHT22;10838;52.350;9.790;2024-02-04T09:52:40;9.70;96.60
9373;DHT22;10838;52.350;9.790;2024-02-04T09:55:10;9.70;96.60
9373;DHT22;10838;52.350;9.790;2024-02-04T09:57:39;9.70;96.60
9373;DHT22;10838;52.350;9.790;2024-02-04T10:00:07;9.70;96.60
9373;DHT22;10838;52.350;9.790;2024-02-04T10:02:34;9.70;96.60
9373;DHT22;10838;52.350;9.790;2024-02-04T10:05:01;9.70;96.60
9373;DHT22;10838;52.350;9.790;2024-02-04T10:07:30;9.70;96.60
9373;DHT22;10838;52.350;9.790;2024-02-04T10:09:56;9.80;96.60
9373;DHT22;10838;52.350;9.790;2024-02-04T10:12:23;9.80;96.60
9373;DHT22;10838;52.350;9.790;2024-02-04T10:14:49;9.70;96.60
9373;DHT22;10838;52.350;9.790;2024-02-04T10:17:16;9.70;96.50
9373;DHT22;10838;52.350;9.790;2024-02-04T10:19:43;9.70;96.60
9373;DHT22;10838;52.350;9.790;2024-02-04T10:22:09;9.70;96.60
9373;DHT22;10838;52.350;9.790;2024-02-04T10:24:38;9.80;96.60
9373;DHT22;10838;52.350;9.790;2024-02-04T10:27:04;9.70;96.60
9373;DHT22;10838;52.350;9.790;2024-02-04T10:29:31;9.70;96.60
9373;DHT22;10838;52.350;9.790;2024-02-04T10:31:58;9.70;96.50
9373;DHT22;10838;52.350;9.790;2024-02-04T10:34:25;9.70;96.50
9373;DHT22;10838;52.350;9.790;2024-02-04T10:36:52;9.80;96.50
9373;DHT22;10838;52.350;9.790;2024-02-04T10:39:19;9.80;96.60
9373;DHT22;10838;52.350;9.790;2024-02-04T10:41:49;9.80;96.60
9373;DHT22;10838;52.350;9.790;2024-02-04T10:44:18;9.80;96.60
9373;DHT22;10838;52.350;9.790;2024-02-04T10:46:47;9.80;96.60
9373;DHT22;10838;52.350;9.790;2024-02-04T10:49:15;9.80;96.60
9373;DHT22;10838;52.350;9.790;2024-02-04T10:51:45;9.80;96.60
9373;DHT22;10838;52.350;9.790;2024-02-04T10:54:14;9.80;96.50
9373;DHT22;10838;52.350;9.790;2024-02-04T10:56:43;9.90;96.50
9373;DHT22;10838;52.350;9.790;2024-02-04T10:59:11;9.90;96.50
9373;DHT22;10838;52.350;9.790;2024-02-04T11:01:38;9.90;96.50
9373;DHT22;10838;52.350;9.790;2024-02-04T11:04:05;9.90;96.50
9373;DHT22;10838;52.350;9.790;2024-02-04T11:06:33;9.90;96.50
9373;DHT22;10838;52.350;9.790;2024-02-04T11:09:00;9.90;96.50
9373;DHT22;10838;52.350;9.790;2024-02-04T11:11:28;10.00;96.40
9373;DHT22;10838;52.350;9.790;2024-02-04T11:13:59;10.00;96.40
9373;DHT22;10838;52.350;9.790;2024-02-04T11:16:40;10.10;96.50
9373;DHT22;10838;52.350;9.790;2024-02-04T11:19:18;10.10;96.50
9373;DHT22;10838;52.350;9.790;2024-02-04T11:22:11;10.10;96.50
9373;DHT22;10838;52.350;9.790;2024-02-04T11:25:03;10.20;96.50
9373;DHT22;10838;52.350;9.790;2024-02-04T11:27:34;10.20;96.40
9373;DHT22;10838;52.350;9.790;2024-02-04T11:30:01;10.30;96.40
9373;DHT22;10838;52.350;9.790;2024-02-04T11:32:30;10.20;96.40
9373;DHT22;10838;52.350;9.790;2024-02-04T11:34:57;10.20;96.30
9373;DHT22;10838;52.350;9.790;2024-02-04T11:37:26;10.30;96.30
9373;DHT22;10838;52.350;9.790;2024-02-04T11:39:54;10.30;96.30
9373;DHT22;10838;52.350;9.790;2024-02-04T11:42:23;10.30;96.30
9373;DHT22;10838;52.350;9.790;2024-02-04T11:44:50;10.30;96.20
9373;DHT22;10838;52.350;9.790;2024-02-04T11:47:23;10.30;96.20
9373;DHT22;10838;52.350;9.790;2024-02-04T11:49:58;10.30;96.10
9373;DHT22;10838;52.350;9.790;2024-02-04T11:52:26;10.40;96.20
9373;DHT22;10838;52.350;9.790;2024-02-04T11:54:53;10.40;96.10
9373;DHT22;10838;52.350;9.790;2024-02-04T11:57:20;10.40;96.00
9373;DHT22;10838;52.350;9.790;2024-02-04T11:59:47;10.40;96.00
9373;DHT22;10838;52.350;9.790;2024-02-04T12:02:16;10.50;96.00
9373;DHT22;10838;52.350;9.790;2024-02-04T12:04:43;10.50;95.90
9373;DHT22;10838;52.350;9.790;2024-02-04T12:07:11;10.50;95.90
9373;DHT22;10838;52.350;9.790;2024-02-04T12:09:39;10.50;95.90
9373;DHT22;10838;52.350;9.790;2024-02-04T12:12:07;10.50;95.90
9373;DHT22;10838;52.350;9.790;2024-02-04T12:14:35;10.50;95.90
9373;DHT22;10838;52.350;9.790;2024-02-04T12:17:07;10.50;95.90
9373;DHT22;10838;52.350;9.790;2024-02-04T12:19:34;10.60;96.00
9373;DHT22;10838;52.350;9.790;2024-02-04T12:22:01;10.60;96.00
9373;DHT22;10838;52.350;9.790;2024-02-04T12:24:35;10.60;96.00
9373;DHT22;10838;52.350;9.790;2024-02-04T12:27:02;10.60;96.00
9373;DHT22;10838;52.350;9.790;2024-02-04T12:29:29;10.60;96.00
9373;DHT22;10838;52.350;9.790;2024-02-04T12:31:59;10.60;96.00
9373;DHT22;10838;52.350;9.790;2024-02-04T12:34:26;10.60;96.00
9373;DHT22;10838;52.350;9.790;2024-02-04T12:36:57;10.60;96.00
9373;DHT22;10838;52.350;9.790;2024-02-04T12:39:24;10.60;95.90
9373;DHT22;10838;52.350;9.790;2024-02-04T12:41:52;10.60;95.90
9373;DHT22;10838;52.350;9.790;2024-02-04T12:44:19;10.60;95.90
9373;DHT22;10838;52.350;9.790;2024-02-04T12:46:45;10.60;95.90
9373;DHT22;10838;52.350;9.790;2024-02-04T12:49:19;10.60;95.90
9373;DHT22;10838;52.350;9.790;2024-02-04T12:51:46;10.50;95.90
9373;DHT22;10838;52.350;9.790;2024-02-04T12:54:13;10.50;95.90
9373;DHT22;10838;52.350;9.790;2024-02-04T12:56:44;10.50;95.90
9373;DHT22;10838;52.350;9.790;2024-02-04T12:59:24;10.50;95.90
9373;DHT22;10838;52.350;9.790;2024-02-04T13:01:55;10.50;95.90
9373;DHT22;10838;52.350;9.790;2024-02-04T13:04:22;10.50;95.90
9373;DHT22;10838;52.350;9.790;2024-02-04T13:06:48;10.50;95.90
9373;DHT22;10838;52.350;9.790;2024-02-04T13:09:15;10.50;95.90
9373;DHT22;10838;52.350;9.790;2024-02-04T13:11:42;10.50;96.00
9373;DHT22;10838;52.350;9.790;2024-02-04T13:14:08;10.50;96.00
9373;DHT22;10838;52.350;9.790;2024-02-04T13:16:37;10.50;96.00
9373;DHT22;10838;52.350;9.790;2024-02-04T13:19:04;10.50;96.00
9373;DHT22;10838;52.350;9.790;2024-02-04T13:21:31;10.40;96.10
9373;DHT22;10838;52.350;9.790;2024-02-04T13:23:57;10.50;96.10
9373;DHT22;10838;52.350;9.790;2024-02-04T13:26:24;10.50;96.10
9373;DHT22;10838;52.350;9.790;2024-02-04T13:28:50;10.40;96.10
9373;DHT22;10838;52.350;9.790;2024-02-04T13:31:17;10.50;96.10
9373;DHT22;10838;52.350;9.790;2024-02-04T13:33:45;10.50;96.10
9373;DHT22;10838;52.350;9.790;2024-02-04T13:36:11;10.40;96.10
9373;DHT22;10838;52.350;9.790;2024-02-04T13:38:38;10.40;96.20
9373;DHT22;10838;52.350;9.790;2024-02-04T13:41:04;10.50;96.20
9373;DHT22;10838;52.350;9.790;2024-02-04T13:43:33;10.40;96.20
9373;DHT22;10838;52.350;9.790;2024-02-04T13:46:00;10.40;96.20
9373;DHT22;10838;52.350;9.790;2024-02-04T13:48:26;10.40;96.20
9373;DHT22;10838;52.350;9.790;2024-02-04T13:50:54;10.40;96.20
9373;DHT22;10838;52.350;9.790;2024-02-04T13:53:21;10.40;96.20
9373;DHT22;10838;52.350;9.790;2024-02-04T13:55:48;10.40;96.20
9373;DHT22;10838;52.350;9.790;2024-02-04T13:58:15;10.40;96.20
9373;DHT22;10838;52.350;9.790;2024-02-04T14:00:43;10.40;96.30
9373;DHT22;10838;52.350;9.790;2024-02-04T14:03:10;10.40;96.30
9373;DHT22;10838;52.350;9.790;2024-02-04T14:05:38;10.40;96.30
9373;DHT22;10838;52.350;9.790;2024-02-04T14:08:07;10.40;96.30
9373;DHT22;10838;52.350;9.790;2024-02-04T14:10:33;10.40;96.30
9373;DHT22;10838;52.350;9.790;2024-02-04T14:13:00;10.40;96.30
9373;DHT22;10838;52.350;9.790;2024-02-04T14:15:26;10.40;96.40
9373;DHT22;10838;52.350;9.790;2024-02-04T14:17:53;10.30;96.40
9373;DHT22;10838;52.350;9.790;2024-02-04T14:20:20;10.40;96.40
9373;DHT22;10838;52.350;9.790;2024-02-04T14:22:47;10.30;96.40
9373;DHT22;10838;52.350;9.790;2024-02-04T14:25:15;10.30;96.40
9373;DHT22;10838;52.350;9.790;2024-02-04T14:27:41;10.30;96.40
9373;DHT22;10838;52.350;9.790;2024-02-04T14:30:09;10.30;96.40
9373;DHT22;10838;52.350;9.790;2024-02-04T14:32:36;10.30;96.50
9373;DHT22;10838;52.350;9.790;2024-02-04T14:35:03;10.30;96.50
9373;DHT22;10838;52.350;9.790;2024-02-04T14:37:30;10.30;96.50
9373;DHT22;10838;52.350;9.790;2024-02-04T14:39:57;10.30;96.50
9373;DHT22;10838;52.350;9.790;2024-02-04T14:42:26;10.30;96.50
9373;DHT22;10838;52.350;9.790;2024-02-04T14:44:53;10.30;96.50
9373;DHT22;10838;52.350;9.790;2024-02-04T14:47:20;10.30;96.60
9373;DHT22;10838;52.350;9.790;2024-02-04T14:49:47;10.20;96.50
9373;DHT22;10838;52.350;9.790;2024-02-04T14:52:14;10.20;96.60
9373;DHT22;10838;52.350;9.790;2024-02-04T14:54:43;10.20;96.60
9373;DHT22;10838;52.350;9.790;2024-02-04T14:57:09;10.20;96.60
9373;DHT22;10838;52.350;9.790;2024-02-04T14:59:38;10.20;96.60
9373;DHT22;10838;52.350;9.790;2024-02-04T15:02:06;10.20;96.60
9373;DHT22;10838;52.350;9.790;2024-02-04T15:04:33;10.20;96.70
9373;DHT22;10838;52.350;9.790;2024-02-04T15:07:00;10.20;96.70
9373;DHT22;10838;52.350;9.790;2024-02-04T15:09:28;10.30;96.70
9373;DHT22;10838;52.350;9.790;2024-02-04T15:11:57;10.20;96.70
9373;DHT22;10838;52.350;9.790;2024-02-04T15:14:24;10.20;96.70
9373;DHT22;10838;52.350;9.790;2024-02-04T15:16:53;10.20;96.80
9373;DHT22;10838;52.350;9.790;2024-02-04T15:19:21;10.20;96.80
9373;DHT22;10838;52.350;9.790;2024-02-04T15:21:48;10.20;96.80
9373;DHT22;10838;52.350;9.790;2024-02-04T15:24:15;10.20;96.90
9373;DHT22;10838;52.350;9.790;2024-02-04T15:26:42;10.10;96.90
9373;DHT22;10838;52.350;9.790;2024-02-04T15:29:12;10.10;96.90
9373;DHT22;10838;52.350;9.790;2024-02-04T15:31:40;10.10;96.90
9373;DHT22;10838;52.350;9.790;2024-02-04T15:34:08;10.10;96.90
9373;DHT22;10838;52.350;9.790;2024-02-04T15:36:35;10.10;97.00
9373;DHT22;10838;52.350;9.790;2024-02-04T15:39:02;10.00;97.00
9373;DHT22;10838;52.350;9.790;2024-02-04T15:41:29;10.10;97.00
9373;DHT22;10838;52.350;9.790;2024-02-04T15:43:55;10.10;97.00
9373;DHT22;10838;52.350;9.790;2024-02-04T15:46:23;10.00;97.00
9373;DHT22;10838;52.350;9.790;2024-02-04T15:48:52;10.00;97.00
9373;DHT22;10838;52.350;9.790;2024-02-04T15:51:20;10.00;97.10
9373;DHT22;10838;52.350;9.790;2024-02-04T15:53:48;10.00;97.10
9373;DHT22;10838;52.350;9.790;2024-02-04T15:56:18;9.90;97.20
9373;DHT22;10838;52.350;9.790;2024-02-04T15:58:47;9.90;97.20
9373;DHT22;10838;52.350;9.790;2024-02-04T16:01:15;9.90;97.20